Time;durP1;ratioP1;P1;durP2;ratioP2;P2;SDS_P1;SDS_P2;PMS_P1;PMS_P2;Temp;Humidity;BMP_temperature;BMP_pressure;BME280_temperature;BME280_humidity;BME280_pressure;Samples;Min_cycle;Max_cycle;Signal;HPM_P1;HPM_P2
2021/10/19 00:01:34;;;;;;;;;;;;;;;28.82;77.23;101279.94;5070602;27;69371;-34
2021/10/19 00:04:14;;;;;;;;;;;;;;;28.84;77.64;101286.81;5072641;27;67237;-35
2021/10/19 00:06:45;;;;;;;;;;;;;;;28.88;77.94;101292.63;5070674;27;70206;-35
2021/10/19 00:09:15;;;;;;;;;;;;;;;28.89;78.11;101294.28;5073771;27;65655;-34
2021/10/19 00:11:45;;;;;;;;;;;;;;;28.92;78.06;101305.56;5076326;27;70339;-34
2021/10/19 00:14:16;;;;;;;;;;;;;;;28.96;77.97;101303.28;5072124;27;66703;-34
2021/10/19 00:16:47;;;;;;;;;;;;;;;28.97;77.96;101304.94;5067511;27;69437;-32
2021/10/19 00:19:26;;;;;;;;;;;;;;;28.98;78.10;101308.50;5069915;27;67310;-32
2021/10/19 00:22:07;;;;;;;;;;;;;;;29.03;78.12;101327.63;5072541;27;69298;-32
2021/10/19 00:24:42;;;;;;;;;;;;;;;29.04;76.48;101307.75;5077661;27;65580;-31
2021/10/19 00:27:18;;;;;;;;;;;;;;;29.07;74.74;101318.16;5063700;27;69239;-32
2021/10/19 00:30:26;;;;;;;;;;;;;;;29.11;74.03;101324.81;5070369;27;66604;-32
2021/10/19 00:33:18;;;;;;;;;;;;;;;29.15;73.55;101320.72;5079275;27;70720;-33
2021/10/19 00:35:56;;;;;;;;;;;;;;;29.18;73.39;101315.72;5064410;27;65672;-32
2021/10/19 00:38:47;;;;;;;;;;;;;;;29.23;73.17;101317.84;5082434;27;69457;-32
2021/10/19 00:41:42;;;;;;;;;;;;;;;29.26;72.44;101322.03;5065962;27;66893;-33
2021/10/19 00:44:32;;;;;;;;;;;;;;;29.28;72.64;101320.78;5067633;27;69456;-34
2021/10/19 00:47:21;;;;;;;;;;;;;;;29.31;72.03;101319.53;5062779;27;65685;-34
2021/10/19 00:50:04;;;;;;;;;;;;;;;29.33;72.27;101328.28;5064314;27;70317;-34
2021/10/19 00:53:13;;;;;;;;;;;;;;;29.34;71.75;101325.41;5064832;27;67121;-33
2021/10/19 00:56:12;;;;;;;;;;;;;;;29.37;71.73;101319.59;5071379;27;69414;-34
2021/10/19 00:58:56;;;;;;;;;;;;;;;29.39;71.87;101322.94;5070753;27;66658;-33
2021/10/19 01:01:47;;;;;;;;;;;;;;;29.43;71.81;101317.13;5068813;27;69929;-34
2021/10/19 01:04:42;;;;;;;;;;;;;;;29.45;71.85;101320.44;5072504;27;65124;-34
2021/10/19 01:07:41;;;;;;;;;;;;;;;29.46;71.71;101322.13;5072848;27;69265;-33
2021/10/19 01:10:15;;;;;;;;;;;;;;;29.48;71.22;101326.31;5056557;27;65792;-33
2021/10/19 01:13:45;;;;;;;;;;;;;;;29.51;71.59;101335.88;5060100;27;70110;-33
2021/10/19 01:16:36;;;;;;;;;;;;;;;29.44;71.25;101324.19;5053860;27;66336;-33
2021/10/19 01:19:22;;;;;;;;;;;;;;;29.56;71.30;101341.50;5086028;27;69676;-33
2021/10/19 01:22:16;;;;;;;;;;;;;;;29.59;71.48;101349.22;5068177;27;66197;-34
2021/10/19 01:25:32;;;;;;;;;;;;;;;29.60;71.35;101332.78;5066564;27;69540;-32
2021/10/19 01:28:22;;;;;;;;;;;;;;;29.65;71.13;101331.41;5058748;27;66162;-32
2021/10/19 01:31:00;;;;;;;;;;;;;;;29.66;70.85;101333.88;5064714;27;69894;-32
2021/10/19 01:33:53;;;;;;;;;;;;;;;29.68;70.74;101325.59;5068373;27;66339;-32
2021/10/19 01:36:53;;;;;;;;;;;;;;;29.70;70.73;101328.91;5046685;28;68610;-32
2021/10/19 01:39:48;;;;;;;;;;;;;;;29.72;71.18;101343.88;5065763;27;66448;-32
2021/10/19 01:42:41;;;;;;;;;;;;;;;29.73;71.12;101348.28;5057320;27;69781;-32
2021/10/19 01:45:54;;;;;;;;;;;;;;;29.76;70.76;101350.59;5067212;27;65915;-33
2021/10/19 01:48:44;;;;;;;;;;;;;;;29.78;71.13;101353.94;5058506;27;69908;-33
2021/10/19 01:51:32;;;;;;;;;;;;;;;29.81;70.58;101353.53;5072735;27;66007;-33
2021/10/19 01:54:34;;;;;;;;;;;;;;;29.85;71.07;101348.53;5083015;27;69276;-33
2021/10/19 01:57:28;;;;;;;;;;;;;;;29.89;70.66;101357.06;5062353;27;66451;-34
2021/10/19 02:00:08;;;;;;;;;;;;;;;29.91;70.54;101347.72;5049361;28;69469;-32
2021/10/19 02:03:15;;;;;;;;;;;;;;;29.94;70.50;101350.00;5086905;27;65651;-33
2021/10/19 02:06:18;;;;;;;;;;;;;;;29.86;70.24;101325.03;5069559;27;70035;-33
2021/10/19 02:08:55;;;;;;;;;;;;;;;30.01;70.49;101350.06;5068782;27;66362;-33
2021/10/19 02:11:51;;;;;;;;;;;;;;;30.04;70.85;101357.75;5050397;27;70105;-33
2021/10/19 02:14:42;;;;;;;;;;;;;;;30.06;70.39;101356.53;5072660;27;64788;-33
2021/10/19 02:17:41;;;;;;;;;;;;;;;30.10;70.74;101351.53;5059134;27;69872;-34
2021/10/19 02:20:26;;;;;;;;;;;;;;;30.13;70.72;101345.69;5065194;27;67291;-33
2021/10/19 02:23:13;;;;;;;;;;;;;;;30.16;70.75;101356.13;5049457;27;70388;-33
2021/10/19 02:26:05;;;;;;;;;;;;;;;30.19;70.32;101355.72;5055633;27;65575;-33
2021/10/19 02:28:46;;;;;;;;;;;;;;;30.22;70.74;101358.03;5066224;27;70853;-33
2021/10/19 02:31:59;;;;;;;;;;;;;;;30.25;70.60;101359.50;5071339;27;66407;-33
2021/10/19 02:34:38;;;;;;;;;;;;;;;30.28;70.58;101359.94;5061967;27;69709;-33
2021/10/19 02:37:21;;;;;;;;;;;;;;;30.31;70.89;101353.25;5071415;27;66506;-34
2021/10/19 02:40:33;;;;;;;;;;;;;;;30.35;70.29;101345.59;5054595;27;69470;-33
2021/10/19 02:43:20;;;;;;;;;;;;;;;30.36;70.24;101334.53;5045502;27;65697;-33
2021/10/19 02:46:03;;;;;;;;;;;;;;;30.40;70.61;101345.81;5054922;27;69198;-33
2021/10/19 02:49:07;;;;;;;;;;;;;;;30.43;70.83;101339.97;5060958;27;66426;-33
2021/10/19 02:51:56;;;;;;;;;;;;;;;30.46;70.25;101334.97;5062699;27;70191;-33
2021/10/19 02:54:31;;;;;;;;;;;;;;;30.50;70.67;101340.78;5068355;27;66662;-32
2021/10/19 02:57:20;;;;;;;;;;;;;;;30.54;70.14;101335.81;5063178;27;69308;-32
2021/10/19 03:00:31;;;;;;;;;;;;;;;30.58;70.11;101337.06;5054504;27;66416;-33
2021/10/19 03:03:28;;;;;;;;;;;;;;;30.61;70.50;101321.22;5076989;27;69473;-34
2021/10/19 03:06:17;;;;;;;;;;;;;;;30.63;70.13;101313.75;5088967;27;66403;-34
2021/10/19 03:09:02;;;;;;;;;;;;;;;30.66;70.42;101312.50;5084186;27;70055;-34
2021/10/19 07:16:51;;;;;;;3.70;3.15;;;;;;;32.16;69.63;100971.38;5040136;27;44655;-33
2021/10/19 07:19:25;;;;;;;5.95;3.25;;;;;;;32.19;69.38;100970.91;5030078;28;68381;-34
2021/10/19 07:21:57;;;;;;;3.70;3.40;;;;;;;32.28;69.31;100980.38;5026384;28;65278;-35
2021/10/19 07:24:28;;;;;;;6.18;4.15;;;;;;;32.40;69.12;100985.91;5022627;28;69735;-34
2021/10/19 07:26:59;;;;;;;4.07;3.77;;;;;;;32.41;69.10;100968.53;5026196;28;66040;-34
2021/10/19 07:29:30;;;;;;;4.28;3.88;;;;;;;32.53;68.79;100965.09;5024160;28;69701;-34
2021/10/19 07:32:03;;;;;;;4.45;4.15;;;;;;;32.62;68.74;100971.84;5021782;28;66113;-34
2021/10/19 07:34:35;;;;;;;8.65;4.60;;;;;;;32.61;68.15;100951.19;5023424;28;69732;-34
2021/10/19 07:37:06;;;;;;;4.85;4.28;;;;;;;32.75;68.52;100951.81;5037988;28;66905;-34
2021/10/19 07:39:39;;;;;;;4.40;4.03;;;;;;;32.78;68.20;100925.03;5028132;28;69214;-34
2021/10/19 07:42:12;;;;;;;4.28;3.97;;;;;;;32.87;67.97;100923.63;5025173;28;66390;-34
2021/10/19 07:44:43;;;;;;;4.38;4.00;;;;;;;32.94;67.92;100916.19;5023855;28;69579;-34
2021/10/19 07:47:14;;;;;;;4.80;4.10;;;;;;;32.94;67.85;100908.03;5029543;28;64791;-34
2021/10/19 07:49:47;;;;;;;6.70;4.18;;;;;;;33.04;67.63;100912.94;5024680;28;70266;-34
2021/10/19 07:52:19;;;;;;;3.97;3.67;;;;;;;33.08;67.69;100910.59;5027996;28;65037;-34
2021/10/19 07:54:50;;;;;;;3.60;3.40;;;;;;;33.07;67.72;100900.75;5027893;28;70828;-34
2021/10/19 07:57:24;;;;;;;4.10;3.80;;;;;;;33.13;67.34;100905.28;5028311;28;66936;-34
2021/10/19 07:59:55;;;;;;;4.55;4.18;;;;;;;33.16;67.13;100910.25;5027251;28;70295;-34
2021/10/19 08:02:27;;;;;;;4.03;3.70;;;;;;;33.19;67.21;100904.31;5026097;28;65466;-34
2021/10/19 08:05:03;;;;;;;5.57;3.95;;;;;;;33.23;67.03;100910.94;5029517;28;69404;-34
2021/10/19 08:07:35;;;;;;;3.92;3.63;;;;;;;33.23;66.99;100910.94;5048118;28;66007;-34
2021/10/19 08:10:06;;;;;;;4.55;4.15;;;;;;;33.22;66.96;100912.00;5042690;28;70192;-34
2021/10/19 08:12:38;;;;;;;4.50;4.15;;;;;;;33.27;66.93;100912.13;5048297;28;66055;-34
2021/10/19 08:15:14;;;;;;;5.10;4.70;;;;;;;33.30;66.85;100916.28;5042606;28;70233;-34
2021/10/19 08:17:46;;;;;;;5.50;5.03;;;;;;;33.30;66.50;100900.78;5047241;28;65773;-34
2021/10/19 08:20:19;;;;;;;6.05;4.80;;;;;;;33.33;66.58;100889.44;5035878;28;69753;-34
2021/10/19 08:22:50;;;;;;;5.10;4.60;;;;;;;33.37;66.70;100885.16;5027576;28;66152;-34
2021/10/19 08:25:29;;;;;;;4.63;4.22;;;;;;;33.43;66.43;100879.84;5032013;28;69921;-34
2021/10/19 08:28:00;;;;;;;4.72;4.00;;;;;;;33.47;66.28;100875.59;5031904;28;66124;-34
2021/10/19 08:30:32;;;;;;;4.53;4.22;;;;;;;33.49;66.30;100854.41;5029862;28;69477;-34
2021/10/19 08:33:04;;;;;;;4.20;3.90;;;;;;;33.59;65.88;100860.94;5031850;28;65392;-34
2021/10/19 08:35:36;;;;;;;4.10;3.72;;;;;;;33.63;65.81;100863.16;5026870;28;69440;-34
2021/10/19 08:38:13;;;;;;;4.05;3.75;;;;;;;33.69;65.59;100871.22;5031871;28;66087;-33
2021/10/19 08:40:44;;;;;;;4.00;3.67;;;;;;;33.73;65.85;100858.78;5042239;28;69243;-33
2021/10/19 08:43:20;;;;;;;4.07;3.88;;;;;;;33.61;65.64;100841.66;5035444;28;66163;-33
2021/10/19 08:45:52;;;;;;;3.92;3.63;;;;;;;33.78;65.79;100861.59;5030562;28;70093;-34
2021/10/19 08:48:23;;;;;;;;;;;;;;;33.65;65.33;100896.41;5036699;28;66247;-34
2021/10/19 08:50:57;;;;;;;3.97;3.70;;;;;;;33.92;66.05;100910.31;5029087;28;70386;-34
2021/10/19 08:53:28;;;;;;;4.70;3.35;;;;;;;33.95;65.29;100907.94;5032258;28;66324;-34
2021/10/19 08:56:12;;;;;;;4.20;3.78;;;;;;;33.96;65.31;100915.06;5031585;28;70329;-33
2021/10/19 08:59:00;;;;;;;4.00;3.33;;;;;;;34.01;64.58;100927.91;5029829;28;66068;-34
2021/10/19 09:01:41;;;;;;;3.65;3.45;;;;;;;33.78;64.49;100880.66;5032288;28;69889;-34
2021/10/19 09:04:13;;;;;;;3.47;3.17;;;;;;;34.09;65.07;100908.53;5031892;28;65667;-34
2021/10/19 09:06:45;;;;;;;3.33;3.13;;;;;;;34.15;64.78;100913.00;5029356;28;70125;-34
2021/10/19 09:09:22;;;;;;;7.15;4.05;;;;;;;34.18;64.54;100928.84;5031826;28;66513;-34
2021/10/19 09:11:58;;;;;;;3.75;3.45;;;;;;;34.22;64.67;100934.66;5028232;28;69868;-35
2021/10/19 09:14:32;;;;;;;4.10;3.70;;;;;;;34.23;64.83;100931.66;5031442;28;67154;-34
2021/10/19 09:17:05;;;;;;;3.80;3.50;;;;;;;34.22;64.71;100908.25;5027662;28;70279;-34
2021/10/19 09:19:37;;;;;;;3.75;3.53;;;;;;;34.26;64.41;100903.94;5032877;28;65481;-34
2021/10/19 09:22:14;;;;;;;4.65;4.25;;;;;;;34.25;64.31;100880.53;5025553;28;69105;-34
2021/10/19 09:24:46;;;;;;;4.78;3.80;;;;;;;34.29;64.23;100885.47;5030408;28;66573;-35
2021/10/19 09:27:17;;;;;;;3.92;3.63;;;;;;;34.07;64.06;100872.53;5024753;28;69098;-34
2021/10/19 09:29:49;;;;;;;3.75;3.45;;;;;;;34.26;64.37;100920.28;5029850;28;66107;-34
2021/10/19 09:32:20;;;;;;;3.58;3.28;;;;;;;34.34;64.11;100915.53;5023864;28;70617;-35
2021/10/19 09:34:51;;;;;;;3.75;3.45;;;;;;;34.29;63.96;100902.63;5033286;28;66179;-34
2021/10/19 09:37:23;;;;;;;8.02;3.35;;;;;;;34.35;63.51;100923.47;5027931;28;70020;-35
2021/10/19 09:39:54;;;;;;;3.58;3.28;;;;;;;34.38;63.52;100938.47;5033515;28;65366;-34
2021/10/19 09:42:27;;;;;;;3.72;3.42;;;;;;;34.37;63.43;100947.72;5024341;28;69332;-34
2021/10/19 09:45:00;;;;;;;3.50;3.20;;;;;;;34.38;63.05;100965.72;5030476;28;65695;-34
2021/10/19 09:47:37;;;;;;;3.67;3.38;;;;;;;34.16;63.07;100920.09;5029239;28;69061;-34
2021/10/19 09:50:10;;;;;;;3.63;3.33;;;;;;;34.44;62.98;100970.22;5027011;28;66168;-34
2021/10/19 09:52:44;;;;;;;3.70;3.40;;;;;;;34.34;62.82;100959.09;5026969;28;69854;-34
2021/10/19 09:55:17;;;;;;;5.22;3.35;;;;;;;34.37;62.87;100953.16;5032373;28;65049;-35
2021/10/19 09:57:51;;;;;;;3.35;3.15;;;;;;;34.46;62.96;100968.03;5029940;28;69915;-34
2021/10/19 10:00:23;;;;;;;3.33;3.05;;;;;;;34.45;63.28;100963.69;5023517;28;65907;-34
2021/10/19 10:02:53;;;;;;;3.58;3.28;;;;;;;34.42;62.93;100969.63;5022975;28;70335;-34
2021/10/19 10:05:24;;;;;;;6.93;3.40;;;;;;;34.39;63.20;100978.28;5031699;28;67357;-34
2021/10/19 10:07:57;;;;;;;6.13;3.07;;;;;;;34.46;62.64;100995.28;5030540;28;70786;-34
2021/10/19 10:10:29;;;;;;;5.65;3.50;;;;;;;34.47;62.93;101005.94;5027822;28;65620;-34
2021/10/19 10:13:01;;;;;;;3.63;3.15;;;;;;;34.38;62.55;100993.78;5025208;28;69618;-34
2021/10/19 10:15:35;;;;;;;4.78;3.38;;;;;;;34.44;62.47;100986.56;5032608;28;65300;-34
2021/10/19 10:18:09;;;;;;;3.72;3.42;;;;;;;34.44;62.64;101000.16;5026688;28;70377;-33
2021/10/19 10:20:41;;;;;;;3.45;3.08;;;;;;;34.44;62.62;101020.06;5027915;28;65879;-34
2021/10/19 10:23:18;;;;;;;3.80;3.47;;;;;;;34.41;62.50;101000.66;5034863;28;69174;-34
2021/10/19 10:25:56;;;;;;;6.40;3.85;;;;;;;34.32;62.31;100996.63;5032004;28;65658;-34
2021/10/19 10:28:35;;;;;;;7.18;3.63;;;;;;;34.41;62.49;101022.44;5023641;28;69967;-33
2021/10/19 10:31:17;;;;;;;3.88;3.45;;;;;;;34.36;62.59;101027.78;5030665;28;65430;-34
2021/10/19 10:34:00;;;;;;;4.35;3.40;;;;;;;34.38;62.31;101040.09;5029544;28;70536;-34
2021/10/19 10:36:54;;;;;;;19.42;4.60;;;;;;;34.26;62.92;101034.63;5020922;28;66482;-34
2021/10/19 10:40:09;;;;;;;12.43;4.57;;;;;;;34.19;63.80;101055.75;5022965;28;69922;-34
2021/10/19 10:42:52;;;;;;;7.95;4.50;;;;;;;33.83;64.52;101061.41;5024636;28;66605;-35
2021/10/19 10:45:44;;;;;;;10.73;4.38;;;;;;;33.71;64.66;101070.41;5026010;28;70776;-35
2021/10/19 10:48:31;;;;;;;9.68;5.00;;;;;;;33.52;65.22;101066.94;5024146;28;65410;-36
2021/10/19 10:51:04;;;;;;;8.82;5.75;;;;;;;33.17;65.53;101031.47;5028262;28;70439;-35
2021/10/19 10:56:49;;;;;;;5.05;4.65;;;;;;;32.99;66.62;101013.34;5017047;28;70365;-34
2021/10/19 10:59:41;;;;;;;15.05;5.50;;;;;;;33.41;66.33;101053.31;5021172;28;66460;-35
2021/10/19 11:02:12;;;;;;;8.35;5.55;;;;;;;33.63;65.72;101072.63;5038646;28;69974;-35
2021/10/19 11:04:55;;;;;;;12.98;6.25;;;;;;;33.72;65.21;101072.06;5023206;28;65281;-35
2021/10/19 11:07:37;;;;;;;14.00;6.68;;;;;;;33.61;65.59;101059.28;5025265;28;70526;-35
2021/10/19 11:10:23;;;;;;;23.70;6.78;;;;;;;33.56;65.51;101040.09;5025547;28;66450;-35
2021/10/19 11:13:20;;;;;;;12.93;7.45;;;;;;;33.81;65.65;101081.50;5017167;28;69925;-35
2021/10/19 11:16:06;;;;;;;15.60;7.80;;;;;;;33.84;65.75;101074.78;5026050;28;66435;-35
2021/10/19 11:18:41;;;;;;;12.63;6.95;;;;;;;33.85;65.53;101078.31;5024650;28;69858;-35
2021/10/19 11:21:12;;;;;;;16.15;7.47;;;;;;;33.79;65.46;101078.22;5044529;28;65668;-35
2021/10/19 11:24:03;;;;;;;;;;;;;;;;;;;;;
2021/10/19 11:26:38;;;;;;;9.85;6.60;;;;;;;33.81;65.49;101086.94;5025293;28;65328;-35
2021/10/19 11:29:10;;;;;;;9.98;6.38;;;;;;;33.79;65.69;101097.25;5018910;28;70391;-35
2021/10/19 11:31:42;;;;;;;12.05;6.43;;;;;;;33.75;65.94;101104.22;5025244;28;66377;-35
2021/10/19 11:34:19;;;;;;;10.25;6.15;;;;;;;33.78;66.08;101109.19;5020483;28;70134;-35
2021/10/19 11:37:12;;;;;;;9.70;6.10;;;;;;;33.77;65.77;101117.59;5008711;28;65565;-35
2021/10/19 11:39:48;;;;;;;7.05;6.45;;;;;;;33.74;66.05;101124.34;5016797;28;69605;-34
2021/10/19 11:42:32;;;;;;;7.65;6.10;;;;;;;33.70;66.09;101116.88;5017420;28;65464;-34
2021/10/19 11:45:15;;;;;;;9.55;6.40;;;;;;;33.71;65.92;101119.38;5021744;28;70917;-34
2021/10/19 11:48:04;;;;;;;6.80;6.20;;;;;;;33.67;66.19;101118.16;5026319;28;65619;-34
2021/10/19 11:50:54;;;;;;;6.07;5.68;;;;;;;33.39;66.80;101121.50;5022848;28;70461;-34
2021/10/19 11:53:46;;;;;;;6.07;5.57;;;;;;;33.13;66.91;101120.00;5008570;28;66458;-35
2021/10/19 11:56:24;;;;;;;6.60;6.10;;;;;;;33.06;67.77;101122.78;5023853;28;69879;-34
2021/10/19 11:59:01;;;;;;;6.57;5.97;;;;;;;32.69;68.22;101089.41;5023640;28;66187;-34
2021/10/19 12:01:41;;;;;;;7.22;5.80;;;;;;;32.90;68.65;101135.09;5018918;28;70019;-35
2021/10/19 12:04:13;;;;;;;9.70;5.95;;;;;;;32.63;68.77;101090.31;5023311;28;66562;-35
2021/10/19 12:06:46;;;;;;;5.57;5.10;;;;;;;32.78;69.70;101131.47;5025113;28;69771;-35
2021/10/19 12:09:28;;;;;;;5.53;5.13;;;;;;;32.79;69.29;101127.72;5024423;28;66308;-35
2021/10/19 12:12:13;;;;;;;8.17;5.30;;;;;;;32.72;70.06;101129.69;5027063;28;70150;-34
2021/10/19 12:15:03;;;;;;;5.38;4.88;;;;;;;32.72;70.15;101137.81;5024967;28;66867;-35
2021/10/19 12:17:35;;;;;;;5.65;5.25;;;;;;;32.74;69.49;101134.91;5024434;28;70310;-35
2021/10/19 12:20:12;;;;;;;9.98;4.97;;;;;;;32.62;69.60;101123.94;5026027;28;66077;-35
2021/10/19 12:22:44;;;;;;;5.25;4.88;;;;;;;32.67;70.27;101140.38;5026341;28;69992;-35
2021/10/19 12:25:16;;;;;;;5.40;4.82;;;;;;;32.61;70.71;101144.00;5025892;28;66512;-35
2021/10/19 12:27:47;;;;;;;4.90;4.60;;;;;;;32.60;70.96;101150.50;5021854;28;70424;-35
2021/10/19 12:30:20;;;;;;;5.60;4.47;;;;;;;32.52;71.57;101145.38;5026200;28;66660;-35
2021/10/19 12:32:53;;;;;;;;;;;;;;;32.30;72.22;101156.63;5028541;28;69991;-35
2021/10/19 12:35:33;;;;;;;4.78;4.38;;;;;;;32.40;71.03;101137.94;5028688;28;66708;-35
2021/10/19 12:38:12;;;;;;;4.65;4.30;;;;;;;32.53;71.01;101168.75;5017057;28;70045;-35
2021/10/19 12:41:06;;;;;;;6.05;4.30;;;;;;;32.46;70.16;101172.38;5025447;28;65442;-34
2021/10/19 12:43:40;;;;;;;7.07;4.03;;;;;;;32.12;69.28;101126.72;5006122;28;69321;-35
2021/10/19 12:46:15;;;;;;;18.33;4.40;;;;;;;32.28;68.37;101169.56;5023904;28;65526;-34
2021/10/19 12:49:02;;;;;;;4.13;3.35;;;;;;;31.54;67.30;101090.66;5025623;28;69944;-34
2021/10/19 12:51:34;;;;;;;6.25;4.50;;;;;;;32.09;66.67;101192.28;5027937;28;65455;-34
2021/10/19 12:54:05;;;;;;;;;;;;;;;31.67;66.72;101205.50;5029512;28;69581;-35
2021/10/19 12:56:43;;;;;;;5.97;3.10;;;;;;;31.89;65.90;101204.09;5029909;28;65121;-35
2021/10/19 12:59:15;;;;;;;5.13;3.60;;;;;;;31.74;65.51;101201.72;5028358;28;70079;-36
2021/10/19 13:01:47;;;;;;;3.72;2.83;;;;;;;31.68;64.50;101221.56;5026639;28;66208;-35
2021/10/19 13:04:56;;;;;;;4.50;3.10;;;;;;;31.57;64.37;101231.22;5027595;28;69370;-34
2021/10/19 13:07:48;;;;;;;9.57;3.42;;;;;;;31.56;64.45;101245.81;5030058;28;66412;-35
2021/10/19 13:10:19;;;;;;;4.20;3.13;;;;;;;31.41;63.20;101247.97;5020658;28;70251;-35
2021/10/19 13:12:51;;;;;;;7.60;3.33;;;;;;;31.45;63.38;101256.50;5020370;28;66866;-35
2021/10/19 13:15:23;;;;;;;7.87;3.23;;;;;;;31.35;62.92;101267.78;5022636;28;69892;-35
2021/10/19 13:18:14;;;;;;;6.50;3.25;;;;;;;31.27;61.41;101277.00;5020597;28;66330;-34
2021/10/19 13:20:47;;;;;;;4.93;3.17;;;;;;;31.28;61.21;101288.66;5024391;28;69226;-34
2021/10/19 13:23:18;;;;;;;7.60;2.97;;;;;;;31.23;61.57;101277.63;5025174;28;65243;-34
2021/10/19 13:25:51;;;;;;;4.55;2.88;;;;;;;31.21;60.01;101282.44;5019855;28;70553;-34
2021/10/19 13:28:22;;;;;;;8.82;2.95;;;;;;;31.15;60.24;101282.25;5021046;28;65480;-35
2021/10/19 13:31:01;;;;;;;7.50;2.75;;;;;;;31.15;60.75;101279.53;5022685;28;70025;-34
2021/10/19 13:33:32;;;;;;;;;;;;;;;30.85;60.58;101290.00;5027915;28;65680;-34
2021/10/19 13:36:03;;;;;;;10.73;3.60;;;;;;;31.02;60.17;101284.97;5022102;28;69539;-33
2021/10/19 13:38:34;;;;;;;4.80;3.15;;;;;;;31.05;60.03;101295.38;5014243;28;66241;-33
2021/10/19 13:41:06;;;;;;;;;;;;;;;30.73;60.37;101287.09;5025074;28;69383;-35
2021/10/19 13:43:37;;;;;;;16.00;3.58;;;;;;;30.92;59.76;101295.41;5025391;28;65501;-35
2021/10/19 13:46:09;;;;;;;24.05;4.13;;;;;;;30.88;60.18;101291.47;5020262;28;70004;-35
2021/10/19 13:48:42;;;;;;;35.20;4.30;;;;;;;30.71;60.42;101270.19;5020473;28;65700;-35
2021/10/19 13:51:14;;;;;;;26.80;4.60;;;;;;;30.85;59.56;101300.84;5022742;28;69939;-34
2021/10/19 13:53:48;;;;;;;20.80;4.95;;;;;;;30.78;59.62;101294.56;5020908;28;66235;-36
2021/10/19 13:56:19;;;;;;;22.40;4.45;;;;;;;30.81;58.79;101309.59;5013948;28;70351;-34
2021/10/19 13:59:07;;;;;;;26.20;4.75;;;;;;;30.78;58.42;101304.56;5022963;28;66200;-35
2021/10/19 14:01:38;;;;;;;22.38;4.97;;;;;;;30.61;57.79;101299.56;5015044;28;70004;-36
2021/10/19 14:04:09;;;;;;;17.43;4.47;;;;;;;30.68;57.17;101315.84;5017702;28;66521;-36
2021/10/19 14:06:41;;;;;;;38.83;5.87;;;;;;;30.63;57.18;101307.50;5015290;28;69895;-37
2021/10/19 14:09:12;;;;;;;15.80;4.55;;;;;;;30.52;56.40;101317.06;5019291;28;66325;-34
2021/10/19 14:11:57;;;;;;;17.23;5.40;;;;;;;30.13;56.69;101237.47;5018880;28;69930;-34
2021/10/19 14:14:30;;;;;;;10.13;4.60;;;;;;;30.55;55.89;101305.81;5016782;28;65498;-34
2021/10/19 14:17:03;;;;;;;15.23;4.90;;;;;;;30.49;55.16;101301.25;5000876;28;69792;-34
2021/10/19 14:19:35;;;;;;;16.38;4.93;;;;;;;30.48;55.26;101302.28;5018518;28;66328;-34
2021/10/19 14:22:09;;;;;;;10.73;4.77;;;;;;;30.41;54.99;101304.97;5019639;28;69086;-34
2021/10/19 14:24:41;;;;;;;11.68;4.35;;;;;;;30.43;55.12;101302.06;5021681;28;65983;-34
2021/10/19 14:27:14;;;;;;;7.00;4.90;;;;;;;30.39;54.32;101306.22;5015942;28;69502;-34
2021/10/19 14:29:46;;;;;;;9.30;5.22;;;;;;;30.36;54.98;101301.22;5018631;28;66081;-35
2021/10/19 14:32:18;;;;;;;9.77;4.50;;;;;;;30.33;53.51;101301.66;5002337;28;69763;-34
2021/10/19 14:34:49;;;;;;;8.48;4.68;;;;;;;30.24;55.21;101292.91;5015081;28;66515;-35
2021/10/19 14:37:20;;;;;;;5.45;5.05;;;;;;;30.31;55.72;101288.31;5021337;28;70200;-35
2021/10/19 14:39:51;;;;;;;7.55;5.13;;;;;;;30.24;54.68;101282.91;5018775;28;66751;-34
2021/10/19 14:42:24;;;;;;;5.55;5.15;;;;;;;30.23;54.65;101281.25;5021197;28;69930;-35
2021/10/19 14:44:55;;;;;;;13.38;4.80;;;;;;;30.25;55.09;101279.13;5021937;28;65825;-35
2021/10/19 14:47:26;;;;;;;5.90;5.30;;;;;;;30.16;53.71;101274.94;5025191;28;70089;-35
2021/10/19 14:49:59;;;;;;;5.07;4.57;;;;;;;30.20;54.67;101278.91;5022526;28;66736;-34
2021/10/19 14:52:30;;;;;;;7.43;4.55;;;;;;;30.20;54.78;101284.34;5020291;28;70872;-34
2021/10/19 14:55:03;;;;;;;4.87;4.47;;;;;;;30.10;53.37;101264.13;5015687;28;66258;-34
2021/10/19 14:57:41;;;;;;;6.88;4.50;;;;;;;30.07;53.00;101265.38;5023968;28;70206;-35
2021/10/19 15:00:13;;;;;;;4.80;4.45;;;;;;;30.03;52.93;101261.38;5021030;28;65867;-34
2021/10/19 15:02:46;;;;;;;6.63;5.25;;;;;;;30.00;53.31;101259.09;5022941;28;70811;-34
2021/10/19 15:05:18;;;;;;;13.75;4.75;;;;;;;29.98;53.12;101261.19;5016818;28;66222;-35
2021/10/19 15:07:49;;;;;;;;;;;;;;;29.70;52.62;101264.88;5019662;28;70023;-33
2021/10/19 15:10:20;;;;;;;5.10;4.65;;;;;;;29.97;53.05;101268.47;4991475;28;65805;-34
2021/10/19 15:12:55;;;;;;;6.68;4.03;;;;;;;29.99;52.71;101269.09;5028901;28;68108;-34
2021/10/19 15:15:26;;;;;;;6.53;4.30;;;;;;;29.88;52.09;101266.16;5023691;28;66147;-35
2021/10/19 15:17:58;;;;;;;5.07;4.15;;;;;;;29.90;52.08;101255.97;5031717;28;70093;-34
2021/10/19 15:20:29;;;;;;;4.35;4.05;;;;;;;29.86;51.62;101268.22;5026710;28;66139;-34
2021/10/19 15:23:01;;;;;;;4.60;3.78;;;;;;;29.79;52.19;101257.41;5026136;28;69766;-33
2021/10/19 15:25:32;;;;;;;9.57;4.43;;;;;;;29.82;51.70;101268.63;5038106;28;65436;-35
2021/10/19 15:28:05;;;;;;;5.03;4.63;;;;;;;29.82;52.08;101279.44;5029430;28;70536;-35
2021/10/19 15:30:51;;;;;;;4.40;4.10;;;;;;;29.76;51.37;101269.47;5027532;28;66538;-35
2021/10/19 15:33:26;;;;;;;8.10;4.70;;;;;;;29.78;51.88;101278.22;5032855;28;69657;-34
2021/10/19 15:36:06;;;;;;;6.97;4.30;;;;;;;29.78;52.01;101275.50;5030102;28;66173;-35
2021/10/19 15:38:38;;;;;;;8.82;4.35;;;;;;;29.80;52.09;101276.13;5033409;28;70322;-34
2021/10/19 15:41:09;;;;;;;5.20;4.50;;;;;;;29.74;51.44;101270.69;5051409;28;65313;-33
2021/10/19 15:43:41;;;;;;;4.22;3.88;;;;;;;29.70;51.78;101285.66;5045136;28;68894;-33
2021/10/19 15:46:12;;;;;;;4.35;4.05;;;;;;;29.71;51.68;101287.31;5034882;28;66459;-34
2021/10/19 15:48:45;;;;;;;5.22;3.83;;;;;;;29.74;51.49;101287.75;5032538;28;70157;-34
2021/10/19 15:51:17;;;;;;;3.70;3.40;;;;;;;29.71;51.27;101287.31;5015172;28;66047;-34
2021/10/19 15:53:48;;;;;;;;;;;;;;;29.43;51.34;101284.69;5032418;28;69837;-35
2021/10/19 15:56:19;;;;;;;4.50;3.90;;;;;;;29.67;50.97;101284.22;5034444;28;66883;-34
2021/10/19 15:59:10;;;;;;;4.10;3.80;;;;;;;29.72;52.04;101291.69;5032513;28;70488;-34
2021/10/19 16:01:41;;;;;;;7.35;3.75;;;;;;;29.82;52.23;101282.16;5036483;28;65124;-34
2021/10/19 16:04:15;;;;;;;8.93;3.65;;;;;;;29.88;52.23;101277.81;5033462;28;70705;-35
2021/10/19 16:06:47;;;;;;;8.68;4.32;;;;;;;29.93;51.85;101282.63;5033909;28;65229;-34
2021/10/19 16:09:24;;;;;;;6.80;3.80;;;;;;;29.95;51.69;101278.66;5029348;28;69467;-34
2021/10/19 16:11:56;;;;;;;4.20;3.90;;;;;;;29.95;51.84;101286.78;5039954;28;64164;-34
2021/10/19 16:14:27;;;;;;;3.92;3.63;;;;;;;29.82;51.28;101265.94;5043929;28;70029;-34
2021/10/19 16:17:00;;;;;;;7.93;4.43;;;;;;;29.87;51.37;101276.16;5049579;28;67094;-33
2021/10/19 16:19:49;;;;;;;13.45;3.45;;;;;;;29.89;51.33;101282.16;5030396;28;70356;-34
2021/10/19 16:22:22;;;;;;;13.43;3.78;;;;;;;29.83;51.53;101272.16;5029447;28;66328;-33
2021/10/19 16:24:53;;;;;;;5.57;3.58;;;;;;;29.87;51.49;101281.56;5030693;28;69786;-33
2021/10/19 16:27:24;;;;;;;4.80;4.35;;;;;;;29.86;51.06;101279.03;5030151;28;66279;-34
2021/10/19 16:29:55;;;;;;;19.60;4.38;;;;;;;29.83;51.45;101264.88;5031449;28;70604;-34
2021/10/19 16:32:27;;;;;;;17.63;4.20;;;;;;;29.82;50.72;101268.63;5030073;28;65678;-34
2021/10/19 16:34:58;;;;;;;27.67;4.65;;;;;;;29.81;51.22;101258.88;5029962;28;69095;-33
2021/10/19 16:37:37;;;;;;;18.35;4.70;;;;;;;29.77;50.85;101262.19;5028613;28;65377;-35
2021/10/19 16:40:14;;;;;;;11.23;4.00;;;;;;;29.74;50.84;101265.28;5051657;28;69998;-34
2021/10/19 16:42:46;;;;;;;28.40;4.38;;;;;;;29.72;50.63;101253.84;5020173;28;65583;-34
2021/10/19 16:45:17;;;;;;;8.90;3.92;;;;;;;29.66;50.94;101247.38;5036030;28;70628;-34